Astoria, South Dakota
Current Conditions -  °F | °C
As of 6:54 AM on Thursday 27 Nov 2014 (Local Time) from KCNB Reporting Station
Clear Clear  
Wind Chill: -24°   Ceiling: Unl
Heat Index: -10°   Visibility: 10mi
Dew Point: -15°   Wind: 6mph
Humidity: 81%   Direction: 260°W
Pressure: 30.52"   Gusts: NA
Location:  44.56°N, 96.55°W
Report Text: KCNB 271254Z AUTO 26005KT 10SM CLR M23/M26 A3052 RMK AO2 T12351260
Loading
Personal Weather Stations






























Interactive Weather Map New forecast layout! Learn more

10-Day Weather Forecast

Advertisements
Track Severe Weather on mobile